CheckWX is a tool to help pilots better visualize weather data.  It is not intended as a substitute for an official pre-flight weather briefing.

09:57:03 UTC

K7BM METAR
Cottonwood Pass Airport
Cottonwood Pass, Colorado, USA
Current

33 mins ago

K7BM 230924Z AUTO 12009KT 10SM CLR 11/06 A3064 RMK AO2
Observed
Jul-23 @ 09:24 UTC
Wind
  • 120° at 9 KTS
Visibility
10 SM
Flight Rules
VFR
Cloud Levels
  • Clear skies
Temperature
11°C / 52°F
Dewpoint
C / 43°F
Humidity
72%
Altimeter
30.64" Hg
Pressure
1037.62 hPa
Previous

57 mins ago

K7BM 230900Z AUTO 00000KT 10SM CLR 12/05 A3066 RMK AO2
Observed
Jul-23 @ 09:00 UTC
Visibility
10 SM
Flight Rules
VFR
Cloud Levels
  • Clear skies
Temperature
12°C / 54°F
Dewpoint
C / 41°F
Humidity
63%
Altimeter
30.66" Hg
Pressure
1038.32 hPa
Previous

1 hour ago

K7BM 230840Z AUTO 00000KT 10SM CLR 11/05 A3066 RMK AO2
Observed
Jul-23 @ 08:40 UTC
Visibility
10 SM
Flight Rules
VFR
Cloud Levels
  • Clear skies
Temperature
11°C / 52°F
Dewpoint
C / 41°F
Humidity
67%
Altimeter
30.66" Hg
Pressure
1038.32 hPa